createdAt,value
2018-07-20T00:01:42.083Z,72.70
2018-07-20T00:04:12.433Z,72.80
2018-07-20T00:06:43.116Z,73.15
2018-07-20T00:09:13.496Z,72.83
2018-07-20T00:11:44.095Z,72.71
2018-07-20T00:14:15.042Z,72.93
2018-07-20T00:16:45.505Z,73.32
2018-07-20T00:19:15.837Z,73.29
2018-07-20T00:21:46.298Z,73.44
2018-07-20T00:24:16.958Z,73.61
2018-07-20T00:26:47.412Z,73.31
2018-07-20T00:29:17.768Z,72.93
2018-07-20T00:31:48.234Z,72.87
2018-07-20T00:34:18.461Z,73.50
2018-07-20T00:36:49.069Z,73.33
2018-07-20T00:39:19.343Z,73.27
2018-07-20T00:41:49.645Z,72.90
2018-07-20T00:44:20.168Z,72.86
2018-07-20T00:46:50.956Z,72.79
2018-07-20T00:49:21.358Z,73.08
2018-07-20T00:51:51.670Z,73.47
2018-07-20T00:54:22.060Z,73.39
2018-07-20T00:56:52.523Z,74.02
2018-07-20T00:59:22.963Z,74.48
2018-07-20T01:01:53.481Z,74.66
2018-07-20T01:04:23.864Z,75.12
2018-07-20T01:06:54.362Z,75.17
2018-07-20T01:09:24.694Z,76.22
2018-07-20T01:11:55.029Z,76.22
2018-07-20T01:14:25.404Z,76.52
2018-07-20T01:16:55.854Z,76.51
2018-07-20T01:19:27.337Z,76.31
2018-07-20T01:21:57.843Z,75.97
2018-07-20T01:24:28.129Z,76.08
2018-07-20T01:26:58.832Z,76.69
2018-07-20T01:29:29.489Z,76.87
2018-07-20T01:31:59.841Z,76.58
2018-07-20T01:34:30.401Z,77.33
2018-07-20T01:37:00.759Z,76.70
2018-07-20T01:39:32.284Z,76.98
2018-07-20T01:42:02.632Z,77.02
2018-07-20T01:44:32.997Z,77.39
2018-07-20T01:47:03.470Z,77.61
2018-07-20T01:49:33.810Z,77.56
2018-07-20T01:52:04.139Z,76.93
2018-07-20T01:54:34.598Z,77.29
2018-07-20T01:57:05.091Z,78.13
2018-07-20T01:59:35.659Z,77.74
2018-07-20T02:02:07.077Z,77.65
2018-07-20T02:04:37.643Z,77.16
2018-07-20T02:07:07.967Z,77.33
2018-07-20T02:09:38.515Z,77.04
2018-07-20T02:12:09.128Z,76.93
2018-07-20T02:14:39.638Z,76.75
2018-07-20T02:17:09.976Z,75.84
2018-07-20T02:19:40.260Z,76.47
2018-07-20T02:22:10.957Z,76.14
2018-07-20T02:24:41.573Z,76.23
2018-07-20T02:27:12.289Z,76.50
2018-07-20T02:29:42.980Z,76.14
2018-07-20T02:32:13.727Z,75.45
2018-07-20T02:34:44.464Z,76.29
2018-07-20T02:37:14.843Z,75.83
2018-07-20T02:39:45.294Z,76.55
2018-07-20T02:42:15.661Z,75.84
2018-07-20T02:44:46.318Z,75.81
2018-07-20T02:47:16.938Z,75.62
2018-07-20T02:49:47.366Z,75.71
2018-07-20T02:52:17.805Z,75.66
2018-07-20T02:54:50.265Z,75.77
2018-07-20T02:57:20.682Z,75.81
2018-07-20T02:59:51.204Z,75.56
2018-07-20T03:02:21.621Z,76.02
2018-07-20T03:04:52.119Z,75.80
2018-07-20T03:07:22.742Z,75.17
2018-07-20T03:09:53.206Z,75.78
2018-07-20T03:12:24.369Z,75.84
2018-07-20T03:14:55.234Z,76.10
2018-07-20T03:17:25.678Z,76.11
2018-07-20T03:19:56.060Z,76.14
2018-07-20T03:22:26.455Z,76.29
2018-07-20T03:24:57.125Z,76.00
2018-07-20T03:27:27.591Z,76.00
2018-07-20T03:29:58.275Z,76.56
2018-07-20T03:32:28.735Z,75.76
2018-07-20T03:34:59.358Z,75.69
2018-07-20T03:37:29.914Z,76.39
2018-07-20T03:40:00.408Z,76.04
2018-07-20T03:42:30.919Z,76.23
2018-07-20T03:45:01.472Z,75.31
2018-07-20T03:47:31.962Z,75.67
2018-07-20T03:50:02.392Z,75.78
2018-07-20T03:52:32.640Z,74.99
2018-07-20T03:55:03.253Z,74.70
2018-07-20T03:57:33.782Z,75.01
2018-07-20T04:00:04.374Z,75.50
2018-07-20T04:02:35.241Z,76.26
2018-07-20T04:05:06.029Z,74.66
2018-07-20T04:07:36.511Z,74.80
2018-07-20T04:10:07.319Z,75.39
2018-07-20T04:12:37.996Z,75.69
2018-07-20T04:15:08.402Z,74.95
2018-07-20T04:17:43.399Z,74.95
2018-07-20T04:20:15.201Z,75.64
2018-07-20T04:23:48.790Z,75.95
2018-07-20T04:26:19.630Z,74.48
2018-07-20T04:28:50.315Z,74.99
2018-07-20T04:31:21.129Z,74.13
2018-07-20T04:33:51.756Z,73.97
2018-07-20T04:36:22.392Z,73.64
2018-07-20T04:38:53.569Z,73.38
2018-07-20T04:41:23.973Z,73.32
2018-07-20T04:43:54.759Z,73.12
2018-07-20T04:46:25.552Z,72.94
2018-07-20T04:48:55.915Z,73.12
2018-07-20T04:51:26.310Z,73.15
2018-07-20T04:53:56.910Z,73.70
2018-07-20T04:56:27.823Z,72.68
2018-07-20T04:58:58.412Z,72.11
2018-07-20T05:01:29.585Z,71.99
2018-07-20T05:03:59.877Z,70.86
2018-07-20T05:06:30.427Z,71.53
2018-07-20T05:09:00.934Z,71.78
2018-07-20T05:11:31.678Z,71.53
2018-07-20T05:14:02.182Z,72.18
2018-07-20T05:16:32.612Z,71.11
2018-07-20T05:19:03.677Z,71.26
2018-07-20T05:21:34.532Z,71.41
2018-07-20T05:24:05.071Z,71.51
2018-07-20T05:26:35.690Z,70.81
2018-07-20T05:29:06.071Z,70.86
2018-07-20T05:31:36.642Z,70.01
2018-07-20T05:34:07.032Z,70.17
2018-07-20T05:36:37.394Z,69.88
2018-07-20T05:39:09.609Z,69.62
2018-07-20T05:41:40.028Z,70.52
2018-07-20T05:44:10.606Z,70.75
2018-07-20T05:46:41.329Z,70.09
2018-07-20T05:49:11.970Z,69.29
2018-07-20T05:51:42.512Z,69.54
2018-07-20T05:54:12.897Z,69.57
2018-07-20T05:56:44.109Z,68.82
2018-07-20T05:59:14.926Z,67.94
2018-07-20T06:01:45.282Z,68.12
2018-07-20T06:04:15.672Z,68.51
2018-07-20T06:06:46.875Z,68.64
2018-07-20T06:09:18.291Z,68.01
2018-07-20T06:11:49.698Z,67.37
2018-07-20T06:14:20.087Z,67.17
2018-07-20T06:16:50.671Z,66.68
2018-07-20T06:19:21.106Z,66.83
2018-07-20T06:21:51.617Z,66.52
2018-07-20T06:24:22.537Z,66.61
2018-07-20T06:26:53.101Z,66.99
2018-07-20T06:29:23.546Z,66.10
2018-07-20T06:31:54.233Z,65.64
2018-07-20T06:34:24.776Z,66.39
2018-07-20T06:36:55.155Z,66.17
2018-07-20T06:39:25.599Z,66.47
2018-07-20T06:41:56.044Z,65.54
2018-07-20T06:44:26.664Z,65.76
2018-07-20T06:46:57.210Z,65.82
2018-07-20T06:49:27.720Z,66.46
2018-07-20T06:51:58.147Z,67.61
2018-07-20T06:54:28.721Z,68.40
2018-07-20T06:56:59.212Z,67.55
2018-07-20T06:59:29.841Z,66.05
2018-07-20T07:02:00.184Z,65.67
2018-07-20T07:04:30.706Z,64.77
2018-07-20T07:07:02.060Z,66.51
2018-07-20T07:09:32.900Z,65.42
2018-07-20T07:12:03.497Z,65.67
2018-07-20T07:14:33.936Z,64.79
2018-07-20T07:17:04.171Z,63.33
2018-07-20T07:19:35.214Z,63.01
2018-07-20T07:22:05.962Z,62.69
2018-07-20T07:24:37.205Z,61.58
2018-07-20T07:27:07.902Z,61.29
2018-07-20T07:29:38.419Z,60.37
2018-07-20T07:32:09.128Z,59.42
2018-07-20T07:34:39.829Z,59.31
2018-07-20T07:37:10.184Z,57.40
2018-07-20T07:39:40.757Z,55.61
2018-07-20T07:42:11.150Z,55.00
2018-07-20T07:44:41.720Z,54.27
2018-07-20T07:47:12.568Z,54.50
2018-07-20T07:49:43.147Z,53.89
2018-07-20T07:52:13.790Z,51.85
2018-07-20T07:54:44.519Z,50.81
2018-07-20T07:57:15.035Z,49.83
2018-07-20T07:59:45.616Z,50.47
2018-07-20T08:02:16.159Z,48.76
2018-07-20T08:04:46.509Z,46.81
2018-07-20T08:07:16.958Z,44.52
2018-07-20T08:09:47.546Z,42.20
2018-07-20T08:12:18.090Z,42.56
2018-07-20T08:14:48.625Z,40.29
2018-07-20T08:17:19.025Z,39.16
2018-07-20T08:19:49.507Z,37.16
2018-07-20T08:22:20.016Z,35.20
2018-07-20T08:24:50.680Z,35.60
2018-07-20T08:27:21.051Z,34.35
2018-07-20T08:29:51.660Z,33.16
2018-07-20T08:32:22.094Z,33.51
2018-07-20T08:34:52.670Z,32.01
2018-07-20T08:37:23.182Z,30.24
2018-07-20T08:39:53.383Z,29.43
2018-07-20T08:42:24.142Z,28.66
2018-07-20T08:44:54.726Z,26.49
2018-07-20T08:47:25.048Z,26.20
2018-07-20T08:49:55.437Z,25.17
2018-07-20T08:52:25.913Z,25.42
2018-07-20T08:54:56.621Z,28.48
2018-07-20T08:57:27.155Z,31.05
2018-07-20T08:59:57.665Z,30.92
2018-07-20T09:02:27.962Z,29.60
2018-07-20T09:04:58.474Z,25.68
2018-07-20T09:07:28.906Z,25.75
2018-07-20T09:10:00.407Z,24.92
2018-07-20T09:12:31.755Z,23.95
2018-07-20T09:15:02.294Z,23.93
2018-07-20T09:17:32.944Z,23.72
2018-07-20T09:20:03.498Z,25.14
2018-07-20T09:22:34.487Z,24.26
2018-07-20T09:25:05.249Z,23.58
2018-07-20T09:27:35.974Z,21.48
2018-07-20T09:30:07.480Z,22.12
2018-07-20T09:32:37.828Z,21.12
2018-07-20T09:35:08.245Z,23.01
2018-07-20T09:37:38.811Z,23.00
2018-07-20T09:40:09.382Z,26.22
2018-07-20T09:42:40.017Z,27.28
2018-07-20T09:45:10.651Z,24.87
2018-07-20T09:47:41.163Z,26.11
2018-07-20T09:50:11.553Z,26.58
2018-07-20T09:52:41.869Z,27.47
2018-07-20T09:55:12.658Z,26.95
2018-07-20T09:57:43.083Z,27.35
2018-07-20T10:00:17.602Z,28.45
2018-07-20T10:02:48.100Z,30.38
2018-07-20T10:05:18.506Z,30.81
2018-07-20T10:07:49.811Z,30.89
2018-07-20T10:10:20.369Z,30.90
2018-07-20T10:12:51.792Z,29.26
2018-07-20T10:15:22.246Z,27.83
2018-07-20T10:17:52.835Z,28.14
2018-07-20T10:20:23.941Z,28.63
2018-07-20T10:22:54.249Z,29.55
2018-07-20T10:25:24.752Z,30.38
2018-07-20T10:27:55.059Z,31.45
2018-07-20T10:30:25.462Z,32.75
2018-07-20T10:32:56.113Z,32.23
2018-07-20T10:35:27.508Z,33.01
2018-07-20T10:37:58.000Z,32.45
2018-07-20T10:40:28.872Z,32.00
2018-07-20T10:42:59.755Z,31.74
2018-07-20T10:45:30.368Z,31.55
2018-07-20T10:48:00.860Z,31.61
2018-07-20T10:50:31.443Z,31.89
2018-07-20T10:53:01.815Z,32.12
2018-07-20T10:55:32.333Z,33.51
2018-07-20T10:58:02.814Z,34.81
2018-07-20T11:00:33.147Z,35.15
2018-07-20T11:03:03.465Z,35.59
2018-07-20T11:05:33.995Z,35.66
2018-07-20T11:08:04.672Z,36.50
2018-07-20T11:10:35.036Z,36.60
2018-07-20T11:13:05.604Z,36.28
2018-07-20T11:15:37.289Z,35.57
2018-07-20T11:18:08.229Z,35.88
2018-07-20T11:20:38.634Z,35.29
2018-07-20T11:23:09.485Z,34.69
2018-07-20T11:25:39.819Z,33.28
2018-07-20T11:28:10.417Z,33.47
2018-07-20T11:30:40.782Z,32.33
2018-07-20T11:33:11.193Z,30.59
2018-07-20T11:35:41.430Z,30.86
2018-07-20T11:38:11.726Z,29.85
2018-07-20T11:40:42.247Z,29.91
2018-07-20T11:43:13.400Z,31.69
2018-07-20T11:45:43.727Z,31.73
2018-07-20T11:48:14.042Z,31.44
2018-07-20T11:50:44.481Z,30.92
2018-07-20T11:53:14.785Z,31.53
2018-07-20T11:55:45.179Z,31.43
2018-07-20T11:58:15.648Z,30.93
2018-07-20T12:00:46.048Z,31.95
2018-07-20T12:03:16.402Z,33.46
2018-07-20T12:05:46.809Z,32.93
2018-07-20T12:08:17.539Z,33.85
2018-07-20T12:10:48.196Z,33.29
2018-07-20T12:13:18.598Z,33.21
2018-07-20T12:15:49.032Z,32.62
2018-07-20T12:18:19.549Z,31.91
2018-07-20T12:20:49.893Z,32.56
2018-07-20T12:23:20.262Z,32.57
2018-07-20T12:25:51.694Z,33.02
2018-07-20T12:28:22.013Z,32.64
2018-07-20T12:30:53.291Z,32.67
2018-07-20T12:33:23.698Z,32.27
2018-07-20T12:35:54.068Z,33.12
2018-07-20T12:38:24.394Z,31.79
2018-07-20T12:40:54.833Z,32.47
2018-07-20T12:43:25.208Z,32.62
2018-07-20T12:45:55.676Z,33.11
2018-07-20T12:48:26.185Z,31.95
2018-07-20T12:50:56.550Z,32.26
2018-07-20T12:53:27.028Z,32.29
2018-07-20T12:55:57.625Z,32.15
2018-07-20T12:58:28.078Z,32.67
2018-07-20T13:00:58.718Z,32.07
2018-07-20T13:03:29.093Z,31.48
2018-07-20T13:05:59.731Z,31.69
2018-07-20T13:08:30.533Z,31.01
2018-07-20T13:11:00.922Z,30.99
2018-07-20T13:13:31.432Z,31.10
2018-07-20T13:16:01.969Z,31.69
2018-07-20T13:18:32.260Z,32.73
2018-07-20T13:21:02.826Z,32.36
2018-07-20T13:23:33.251Z,31.11
2018-07-20T13:26:03.590Z,30.44
2018-07-20T13:28:34.122Z,30.79
2018-07-20T13:31:04.499Z,30.74
2018-07-20T13:33:34.961Z,30.99
2018-07-20T13:36:05.312Z,30.59
2018-07-20T13:38:35.683Z,31.36
2018-07-20T13:41:06.159Z,33.41
2018-07-20T13:43:36.553Z,34.23
2018-07-20T13:46:07.203Z,34.37
2018-07-20T13:48:37.651Z,35.24
2018-07-20T13:51:08.091Z,35.02
2018-07-20T13:53:38.553Z,34.00
2018-07-20T13:56:08.826Z,34.30
2018-07-20T13:58:39.384Z,34.13
2018-07-20T14:02:33.713Z,34.95
2018-07-20T14:05:04.228Z,33.64
2018-07-20T14:07:34.592Z,33.63
2018-07-20T14:10:05.619Z,33.17
2018-07-20T14:12:36.115Z,33.51
2018-07-20T14:15:07.467Z,33.90
2018-07-20T14:17:37.890Z,34.27
2018-07-20T14:20:08.368Z,33.99
2018-07-20T14:22:38.837Z,35.54
2018-07-20T14:25:09.167Z,35.95
2018-07-20T14:27:39.710Z,34.83
2018-07-20T14:30:09.994Z,34.56
2018-07-20T14:32:41.172Z,34.39
2018-07-20T14:35:11.537Z,33.93
2018-07-20T14:37:42.024Z,33.29
2018-07-20T14:40:12.399Z,33.82
2018-07-20T14:42:42.865Z,33.25
2018-07-20T14:45:13.095Z,33.67
2018-07-20T14:47:43.416Z,32.42
2018-07-20T14:50:13.715Z,33.53
2018-07-20T14:52:44.239Z,33.51
2018-07-20T14:55:14.791Z,32.88
2018-07-20T14:57:45.314Z,33.16
2018-07-20T15:00:15.824Z,33.25
2018-07-20T15:02:46.268Z,33.10
2018-07-20T15:05:16.687Z,32.52
2018-07-20T15:07:47.105Z,32.97
2018-07-20T15:10:17.530Z,33.68
2018-07-20T15:12:48.053Z,33.52
2018-07-20T15:15:18.341Z,33.27
2018-07-20T15:17:48.818Z,33.80
2018-07-20T15:20:19.098Z,33.91
2018-07-20T15:22:49.462Z,34.15
2018-07-20T15:25:19.961Z,33.95
2018-07-20T15:27:50.425Z,34.16
2018-07-20T15:30:20.726Z,34.77
2018-07-20T15:32:51.073Z,34.54
2018-07-20T15:35:21.418Z,35.23
2018-07-20T15:37:52.289Z,34.28
2018-07-20T15:40:22.607Z,34.73
2018-07-20T15:42:56.748Z,33.97
2018-07-20T15:45:27.967Z,33.99
2018-07-20T15:47:58.294Z,34.59
2018-07-20T15:50:28.776Z,34.93
2018-07-20T15:53:36.249Z,34.47
2018-07-20T15:55:29.674Z,34.45
2018-07-20T15:58:00.236Z,35.49
2018-07-20T16:00:30.662Z,34.35
2018-07-20T16:03:01.131Z,34.98
2018-07-20T16:05:32.349Z,34.84
2018-07-20T16:08:02.747Z,35.44
2018-07-20T16:10:34.366Z,35.21
2018-07-20T16:13:04.762Z,34.75
2018-07-20T16:15:35.059Z,35.87
2018-07-20T16:18:05.391Z,35.50
2018-07-20T16:20:35.903Z,36.14
2018-07-20T16:23:06.144Z,35.48
2018-07-20T16:25:36.617Z,35.79
2018-07-20T16:28:07.086Z,36.06
2018-07-20T16:30:37.456Z,36.32
2018-07-20T16:33:08.137Z,36.65
2018-07-20T16:35:38.770Z,35.92
2018-07-20T16:38:09.171Z,36.14
2018-07-20T16:40:39.695Z,36.06
2018-07-20T16:43:10.144Z,36.12
2018-07-20T16:45:40.392Z,36.43
2018-07-20T16:48:10.816Z,36.59
2018-07-20T16:50:41.104Z,36.58
2018-07-20T16:53:11.666Z,36.01
2018-07-20T16:55:41.875Z,36.97
2018-07-20T16:58:12.231Z,36.97
2018-07-20T17:00:42.537Z,37.05
2018-07-20T17:03:13.760Z,36.52
2018-07-20T17:05:44.115Z,36.35
2018-07-20T17:08:15.088Z,36.79
2018-07-20T17:10:45.536Z,36.91
2018-07-20T17:13:15.855Z,37.25
2018-07-20T17:15:46.561Z,37.42
2018-07-20T17:18:16.886Z,37.17
2018-07-20T17:20:47.590Z,36.57
2018-07-20T17:23:17.676Z,36.64
2018-07-20T17:25:47.976Z,37.42
2018-07-20T17:28:18.299Z,38.03
2018-07-20T17:30:48.625Z,39.15
2018-07-20T17:33:18.988Z,38.56
2018-07-20T17:35:49.261Z,39.83
2018-07-20T17:38:19.906Z,39.57
2018-07-20T17:40:50.252Z,39.86
2018-07-20T17:43:20.565Z,40.81
2018-07-20T17:45:51.883Z,41.92
2018-07-20T17:48:22.109Z,43.01
2018-07-20T17:50:52.486Z,43.32
2018-07-20T17:53:22.799Z,44.16
2018-07-20T17:55:53.414Z,43.54
2018-07-20T17:58:23.822Z,43.96
2018-07-20T18:00:54.194Z,45.39
2018-07-20T18:03:24.803Z,45.44
2018-07-20T18:05:55.078Z,45.52
2018-07-20T18:08:25.435Z,45.85
2018-07-20T18:10:55.804Z,46.21
2018-07-20T18:13:26.095Z,45.83
2018-07-20T18:15:56.535Z,46.46
2018-07-20T18:18:27.009Z,46.28
2018-07-20T18:20:57.323Z,46.80
2018-07-20T18:23:28.638Z,47.38
2018-07-20T18:25:58.892Z,48.38
2018-07-20T18:28:29.276Z,49.25
2018-07-20T18:30:59.538Z,49.17
2018-07-20T18:33:30.350Z,49.53
2018-07-20T18:36:00.934Z,49.01
2018-07-20T18:38:31.530Z,49.63
2018-07-20T18:41:02.196Z,49.25
2018-07-20T18:43:32.487Z,50.61
2018-07-20T18:46:03.588Z,50.28
2018-07-20T18:48:33.996Z,50.81
2018-07-20T18:51:04.292Z,51.41
2018-07-20T18:53:34.655Z,51.94
2018-07-20T18:56:05.338Z,53.32
2018-07-20T18:58:35.655Z,53.83
2018-07-20T19:01:06.365Z,54.22
2018-07-20T19:03:36.751Z,52.61
2018-07-20T19:06:22.235Z,53.17
2018-07-20T19:08:53.242Z,53.29
2018-07-20T19:11:23.884Z,54.49
2018-07-20T19:13:54.947Z,54.24
2018-07-20T19:16:25.261Z,53.40
2018-07-20T19:18:56.486Z,53.72
2018-07-20T19:21:26.951Z,54.67
2018-07-20T19:23:57.287Z,54.28
2018-07-20T19:26:27.713Z,54.75
2018-07-20T19:28:57.980Z,55.33
2018-07-20T19:31:28.473Z,54.94
2018-07-20T19:33:58.756Z,55.69
2018-07-20T19:36:29.243Z,55.33
2018-07-20T19:38:59.861Z,55.05
2018-07-20T19:41:32.338Z,55.54
2018-07-20T19:44:02.673Z,55.73
2018-07-20T19:46:33.274Z,56.20
2018-07-20T19:49:04.296Z,55.83
2018-07-20T19:51:35.046Z,55.39
2018-07-20T19:54:05.461Z,55.51
2018-07-20T19:56:35.909Z,55.66
2018-07-20T19:59:07.433Z,55.67
2018-07-20T20:01:38.659Z,55.85
2018-07-20T20:04:09.605Z,55.68
2018-07-20T20:06:40.196Z,55.51
2018-07-20T20:09:11.851Z,56.47
2018-07-20T20:11:42.193Z,56.69
2018-07-20T20:14:13.673Z,57.28
2018-07-20T20:16:44.009Z,57.09
2018-07-20T20:19:14.470Z,57.72
2018-07-20T20:21:45.027Z,58.10
2018-07-20T20:24:15.639Z,58.27
2018-07-20T20:26:46.130Z,58.75
2018-07-20T20:29:16.670Z,58.90
2018-07-20T20:31:47.024Z,58.60
2018-07-20T20:34:18.003Z,59.23
2018-07-20T20:36:48.287Z,59.03
2018-07-20T20:39:18.623Z,59.17
2018-07-20T20:41:48.929Z,59.26
2018-07-20T20:44:19.407Z,59.82
2018-07-20T20:46:49.892Z,60.11
2018-07-20T20:49:20.212Z,60.49
2018-07-20T20:51:51.012Z,60.66
2018-07-20T20:54:21.381Z,60.58
2018-07-20T20:56:51.782Z,61.31
2018-07-20T20:59:22.056Z,61.06
2018-07-20T21:01:52.468Z,61.72
2018-07-20T21:04:22.928Z,61.65
2018-07-20T21:06:54.137Z,62.65
2018-07-20T21:09:24.523Z,63.16
2018-07-20T21:11:59.598Z,63.54
2018-07-20T21:14:29.923Z,63.48
2018-07-20T21:17:01.221Z,63.55
2018-07-20T21:19:31.453Z,64.22
2018-07-20T21:22:01.687Z,64.44
2018-07-20T21:24:32.772Z,64.29
2018-07-20T21:27:03.884Z,64.57
2018-07-20T21:29:34.197Z,64.85
2018-07-20T21:32:04.539Z,65.30
2018-07-20T21:34:35.606Z,65.17
2018-07-20T21:37:06.006Z,64.79
2018-07-20T21:39:37.028Z,64.95
2018-07-20T21:42:07.540Z,64.75
2018-07-20T21:44:37.911Z,65.07
2018-07-20T21:47:08.285Z,65.31
2018-07-20T21:49:39.332Z,64.53
2018-07-20T21:52:10.011Z,64.12
2018-07-20T21:54:40.373Z,65.01
2018-07-20T21:57:11.195Z,64.77
2018-07-20T21:59:41.481Z,64.46
2018-07-20T22:02:12.331Z,64.53
2018-07-20T22:04:42.588Z,63.74
2018-07-20T22:07:13.012Z,64.52
2018-07-20T22:09:43.535Z,64.18
2018-07-20T22:12:13.931Z,64.84
2018-07-20T22:14:44.257Z,64.94
2018-07-20T22:17:14.787Z,64.16
2018-07-20T22:19:45.297Z,63.69
2018-07-20T22:22:15.677Z,64.53
2018-07-20T22:24:46.371Z,64.17
2018-07-20T22:27:16.681Z,63.59
2018-07-20T22:29:47.440Z,64.06
2018-07-20T22:32:17.786Z,63.88
2018-07-20T22:34:48.466Z,64.22
2018-07-20T22:37:18.781Z,64.38
2018-07-20T22:39:49.380Z,64.83
2018-07-20T22:42:20.578Z,64.74
2018-07-20T22:44:50.867Z,65.36
2018-07-20T22:47:21.390Z,65.13
2018-07-20T22:49:51.699Z,65.08
2018-07-20T22:52:22.443Z,65.12
2018-07-20T22:54:53.107Z,64.88
2018-07-20T22:57:23.470Z,65.90
2018-07-20T22:59:54.026Z,65.93
2018-07-20T23:02:24.397Z,66.28
2018-07-20T23:04:54.759Z,65.88
2018-07-20T23:07:25.592Z,65.96
2018-07-20T23:09:57.249Z,66.66
2018-07-20T23:12:27.628Z,66.57
2018-07-20T23:14:58.371Z,67.04
2018-07-20T23:17:28.726Z,66.81
2018-07-20T23:19:59.306Z,67.15
2018-07-20T23:22:29.556Z,68.35
2018-07-20T23:25:00.012Z,68.06
2018-07-20T23:27:30.745Z,68.98
2018-07-20T23:30:01.377Z,68.71
2018-07-20T23:32:31.999Z,69.13
2018-07-20T23:35:02.439Z,69.79
2018-07-20T23:37:32.911Z,69.61
2018-07-20T23:40:03.490Z,70.75
2018-07-20T23:42:33.884Z,70.46
2018-07-20T23:45:04.209Z,70.78
2018-07-20T23:47:34.549Z,71.65
2018-07-20T23:50:05.355Z,71.80
2018-07-20T23:52:36.190Z,71.68
2018-07-20T23:55:07.686Z,71.62
2018-07-20T23:57:38.102Z,72.05
